Milton, FL

10:09 AM CDT on July 26, 2016 (GMT -0500)
Milton, FL | | Change Station

Elev 170 ft 30.65 °N, 87.06 °W | Updated 0 second ago

Light Rain
Light Rain
79.2 °F
Feels Like 84 °F
N
0.0
Wind Variable Wind from NNE
Gusts 0.0 mph

Today
High -- | Low -- °F
--% Chance of Precip.
Yesterday
High -- | Low -- °F
Precip. -- in
Pressure 29.96 in
Visibility 7.0 miles
Clouds Scattered Clouds 500 ft
Mostly Cloudy 2800 ft
Mostly Cloudy 7500 ft
Heat Index 84 °F
Dew Point 78 °F
Humidity 96%
Rainfall 0.11 in
Snow Depth Not available.
6:02 AM 7:46 PM
Waning Gibbous, 54% visible
METAR KNDZ 261456Z 10007KT 7SM -RA SCT005 BKN028 BKN075 27/27 A3000 RMK SLP144 T2 SET 60008 T02720267 50008 PNO
Pressure 29.96 in
Visibility 7.0 miles
Clouds Scattered Clouds 500 ft
Mostly Cloudy 2800 ft
Mostly Cloudy 7500 ft
Heat Index 84 °F
Dew Point 78 °F
Humidity 96%
Rainfall 0.11 in
Snow Depth Not available.
6:02 AM 7:46 PM
Waning Gibbous, 54% visible
METAR KNDZ 261456Z 10007KT 7SM -RA SCT005 BKN028 BKN075 27/27 A3000 RMK SLP144 T2 SET 60008 T02720267 50008 PNO

10-Day Weather Forecast

Almanac

Astronomy

Jul. 26, 2016 Rise Set
Actual Time
Civil Twilight
Nautical Twilight
Astronomical Twilight
Moon
Length of Visible Light
Length of Day
Tomorrow will be .
, % of the Moon is Illuminated

Today's Extremes

State Highs State Lows

Community

WunderPhotos

Upload Photos

1,927,608 photos uploaded!

WunderBlog® & News

Nearby

Air Quality

  Air Quality AQ Index Pollutant
Not available.

Snow Depth

Station Depth Elevation

Earthquake Activity

City Distance Mag. Time & Date
Minimum magnitude displayed is 2.5.

Coastal Water Temperatures

Place Temperature

Stations

Nearby Weather Stations

Station Location Temp. Windchill Dew Point Humidity Wind Precip. Elev Updated Type
                   

Watches & Warnings

There are currently no watches in effect.